sensor_id;sensor_type;location;lat;lon;timestamp;P1;durP1;ratioP1;P2;durP2;ratioP2
66886;SDS011;67239;51.680;5.976;2024-03-06T00:00:16;29.75;;;20.60;;
66886;SDS011;67239;51.680;5.976;2024-03-06T00:02:43;33.67;;;20.65;;
66886;SDS011;67239;51.680;5.976;2024-03-06T00:05:11;27.98;;;18.17;;
66886;SDS011;67239;51.680;5.976;2024-03-06T00:07:39;28.35;;;19.35;;
66886;SDS011;67239;51.680;5.976;2024-03-06T00:10:06;29.08;;;19.70;;
66886;SDS011;67239;51.680;5.976;2024-03-06T00:12:33;26.75;;;19.45;;
66886;SDS011;67239;51.680;5.976;2024-03-06T00:15:01;33.28;;;20.38;;
66886;SDS011;67239;51.680;5.976;2024-03-06T00:17:29;30.73;;;19.98;;
66886;SDS011;67239;51.680;5.976;2024-03-06T00:19:56;31.27;;;20.02;;
66886;SDS011;67239;51.680;5.976;2024-03-06T00:22:23;31.13;;;20.67;;
66886;SDS011;67239;51.680;5.976;2024-03-06T00:24:51;28.15;;;18.80;;
66886;SDS011;67239;51.680;5.976;2024-03-06T00:27:18;30.10;;;19.13;;
66886;SDS011;67239;51.680;5.976;2024-03-06T00:29:46;30.77;;;19.58;;
66886;SDS011;67239;51.680;5.976;2024-03-06T00:32:13;31.92;;;20.70;;
66886;SDS011;67239;51.680;5.976;2024-03-06T00:34:41;29.83;;;19.27;;
66886;SDS011;67239;51.680;5.976;2024-03-06T00:37:08;30.23;;;20.15;;
66886;SDS011;67239;51.680;5.976;2024-03-06T00:39:35;32.30;;;20.67;;
66886;SDS011;67239;51.680;5.976;2024-03-06T00:42:02;32.50;;;20.10;;
66886;SDS011;67239;51.680;5.976;2024-03-06T00:44:30;32.65;;;20.13;;
66886;SDS011;67239;51.680;5.976;2024-03-06T00:46:57;41.83;;;22.33;;
66886;SDS011;67239;51.680;5.976;2024-03-06T00:49:24;36.30;;;22.25;;
66886;SDS011;67239;51.680;5.976;2024-03-06T00:51:51;34.78;;;20.95;;
66886;SDS011;67239;51.680;5.976;2024-03-06T00:54:18;34.30;;;22.30;;
66886;SDS011;67239;51.680;5.976;2024-03-06T00:56:45;34.60;;;22.20;;
66886;SDS011;67239;51.680;5.976;2024-03-06T00:59:12;41.88;;;25.35;;
66886;SDS011;67239;51.680;5.976;2024-03-06T01:01:40;39.90;;;24.02;;
66886;SDS011;67239;51.680;5.976;2024-03-06T01:04:08;37.67;;;24.83;;
66886;SDS011;67239;51.680;5.976;2024-03-06T01:06:35;35.13;;;22.85;;
66886;SDS011;67239;51.680;5.976;2024-03-06T01:09:02;36.38;;;22.60;;
66886;SDS011;67239;51.680;5.976;2024-03-06T01:11:29;40.33;;;23.92;;
66886;SDS011;67239;51.680;5.976;2024-03-06T01:13:56;39.92;;;23.90;;
66886;SDS011;67239;51.680;5.976;2024-03-06T01:16:24;37.50;;;23.83;;
66886;SDS011;67239;51.680;5.976;2024-03-06T01:18:51;37.17;;;23.35;;
66886;SDS011;67239;51.680;5.976;2024-03-06T01:21:18;37.65;;;23.92;;
66886;SDS011;67239;51.680;5.976;2024-03-06T01:23:45;39.42;;;23.25;;
66886;SDS011;67239;51.680;5.976;2024-03-06T01:26:12;32.97;;;21.75;;
66886;SDS011;67239;51.680;5.976;2024-03-06T01:28:39;37.85;;;22.83;;
66886;SDS011;67239;51.680;5.976;2024-03-06T01:31:06;35.75;;;21.63;;
66886;SDS011;67239;51.680;5.976;2024-03-06T01:33:34;35.13;;;21.27;;
66886;SDS011;67239;51.680;5.976;2024-03-06T01:36:01;36.30;;;21.77;;
66886;SDS011;67239;51.680;5.976;2024-03-06T01:38:28;34.53;;;22.08;;
66886;SDS011;67239;51.680;5.976;2024-03-06T01:40:58;42.60;;;23.38;;
66886;SDS011;67239;51.680;5.976;2024-03-06T01:43:26;32.63;;;21.98;;
66886;SDS011;67239;51.680;5.976;2024-03-06T01:45:53;39.45;;;23.15;;
66886;SDS011;67239;51.680;5.976;2024-03-06T01:48:27;37.28;;;22.55;;
66886;SDS011;67239;51.680;5.976;2024-03-06T01:50:59;35.28;;;22.25;;
66886;SDS011;67239;51.680;5.976;2024-03-06T01:53:31;36.92;;;21.65;;
66886;SDS011;67239;51.680;5.976;2024-03-06T01:56:01;32.03;;;20.40;;
66886;SDS011;67239;51.680;5.976;2024-03-06T01:58:30;36.65;;;21.00;;
66886;SDS011;67239;51.680;5.976;2024-03-06T02:01:00;35.00;;;20.65;;
66886;SDS011;67239;51.680;5.976;2024-03-06T02:03:29;36.35;;;21.25;;
66886;SDS011;67239;51.680;5.976;2024-03-06T02:06:00;34.47;;;20.95;;
66886;SDS011;67239;51.680;5.976;2024-03-06T02:08:29;34.95;;;20.98;;
66886;SDS011;67239;51.680;5.976;2024-03-06T02:10:57;33.92;;;21.85;;
66886;SDS011;67239;51.680;5.976;2024-03-06T02:13:24;32.28;;;19.52;;
66886;SDS011;67239;51.680;5.976;2024-03-06T02:15:52;34.53;;;21.42;;
66886;SDS011;67239;51.680;5.976;2024-03-06T02:18:19;35.33;;;21.20;;
66886;SDS011;67239;51.680;5.976;2024-03-06T02:20:46;31.40;;;20.50;;
66886;SDS011;67239;51.680;5.976;2024-03-06T02:23:14;29.60;;;19.83;;
66886;SDS011;67239;51.680;5.976;2024-03-06T02:25:42;32.28;;;20.48;;
66886;SDS011;67239;51.680;5.976;2024-03-06T02:28:09;37.13;;;21.80;;
66886;SDS011;67239;51.680;5.976;2024-03-06T02:30:36;32.85;;;20.38;;
66886;SDS011;67239;51.680;5.976;2024-03-06T02:33:04;40.05;;;23.05;;
66886;SDS011;67239;51.680;5.976;2024-03-06T02:35:33;36.40;;;22.75;;
66886;SDS011;67239;51.680;5.976;2024-03-06T02:38:03;36.75;;;20.73;;
66886;SDS011;67239;51.680;5.976;2024-03-06T02:40:31;36.08;;;21.67;;
66886;SDS011;67239;51.680;5.976;2024-03-06T02:42:59;36.75;;;21.73;;
66886;SDS011;67239;51.680;5.976;2024-03-06T02:45:26;36.08;;;22.48;;
66886;SDS011;67239;51.680;5.976;2024-03-06T02:47:54;31.55;;;21.05;;
66886;SDS011;67239;51.680;5.976;2024-03-06T02:50:21;37.47;;;21.90;;
66886;SDS011;67239;51.680;5.976;2024-03-06T02:52:50;33.58;;;21.77;;
66886;SDS011;67239;51.680;5.976;2024-03-06T02:55:18;38.67;;;24.75;;
66886;SDS011;67239;51.680;5.976;2024-03-06T02:57:46;40.65;;;24.02;;
66886;SDS011;67239;51.680;5.976;2024-03-06T03:00:13;39.30;;;24.60;;
66886;SDS011;67239;51.680;5.976;2024-03-06T03:02:42;55.60;;;26.33;;
66886;SDS011;67239;51.680;5.976;2024-03-06T03:05:10;51.40;;;27.63;;
66886;SDS011;67239;51.680;5.976;2024-03-06T03:07:37;44.80;;;27.42;;
66886;SDS011;67239;51.680;5.976;2024-03-06T03:10:05;43.40;;;26.58;;
66886;SDS011;67239;51.680;5.976;2024-03-06T03:12:33;47.95;;;25.85;;
66886;SDS011;67239;51.680;5.976;2024-03-06T03:15:00;45.28;;;26.33;;
66886;SDS011;67239;51.680;5.976;2024-03-06T03:17:27;50.05;;;26.77;;
66886;SDS011;67239;51.680;5.976;2024-03-06T03:19:55;44.75;;;25.23;;
66886;SDS011;67239;51.680;5.976;2024-03-06T03:22:22;62.67;;;26.40;;
66886;SDS011;67239;51.680;5.976;2024-03-06T03:24:49;215.35;;;29.77;;
66886;SDS011;67239;51.680;5.976;2024-03-06T03:27:16;61.92;;;26.27;;
66886;SDS011;67239;51.680;5.976;2024-03-06T03:29:43;377.13;;;35.22;;
66886;SDS011;67239;51.680;5.976;2024-03-06T03:32:10;114.10;;;27.58;;
66886;SDS011;67239;51.680;5.976;2024-03-06T03:34:38;191.52;;;30.42;;
66886;SDS011;67239;51.680;5.976;2024-03-06T03:37:06;158.85;;;29.73;;
66886;SDS011;67239;51.680;5.976;2024-03-06T03:39:33;88.15;;;27.08;;
66886;SDS011;67239;51.680;5.976;2024-03-06T03:42:00;250.80;;;31.98;;
66886;SDS011;67239;51.680;5.976;2024-03-06T03:44:27;225.27;;;28.77;;
66886;SDS011;67239;51.680;5.976;2024-03-06T03:46:54;102.88;;;26.98;;
66886;SDS011;67239;51.680;5.976;2024-03-06T03:49:21;131.68;;;27.27;;
66886;SDS011;67239;51.680;5.976;2024-03-06T03:51:48;340.25;;;32.92;;
66886;SDS011;67239;51.680;5.976;2024-03-06T03:54:16;255.15;;;30.52;;
66886;SDS011;67239;51.680;5.976;2024-03-06T03:56:46;146.43;;;24.88;;
66886;SDS011;67239;51.680;5.976;2024-03-06T03:59:13;66.72;;;23.73;;
66886;SDS011;67239;51.680;5.976;2024-03-06T04:01:41;53.17;;;22.88;;
66886;SDS011;67239;51.680;5.976;2024-03-06T04:04:13;82.03;;;23.40;;
66886;SDS011;67239;51.680;5.976;2024-03-06T04:06:41;89.10;;;23.88;;
66886;SDS011;67239;51.680;5.976;2024-03-06T04:09:08;110.97;;;24.45;;
66886;SDS011;67239;51.680;5.976;2024-03-06T04:11:37;79.28;;;23.33;;
66886;SDS011;67239;51.680;5.976;2024-03-06T04:14:05;121.50;;;25.50;;
66886;SDS011;67239;51.680;5.976;2024-03-06T04:16:33;77.40;;;24.30;;
66886;SDS011;67239;51.680;5.976;2024-03-06T04:19:01;94.68;;;24.45;;
66886;SDS011;67239;51.680;5.976;2024-03-06T04:21:28;86.70;;;24.58;;
66886;SDS011;67239;51.680;5.976;2024-03-06T04:23:56;50.95;;;22.13;;
66886;SDS011;67239;51.680;5.976;2024-03-06T04:26:23;80.70;;;24.70;;
66886;SDS011;67239;51.680;5.976;2024-03-06T04:28:50;55.90;;;22.15;;
66886;SDS011;67239;51.680;5.976;2024-03-06T04:31:17;77.88;;;23.60;;
66886;SDS011;67239;51.680;5.976;2024-03-06T04:33:44;63.00;;;25.08;;
66886;SDS011;67239;51.680;5.976;2024-03-06T04:36:12;66.82;;;22.38;;
66886;SDS011;67239;51.680;5.976;2024-03-06T04:38:39;204.30;;;27.48;;
66886;SDS011;67239;51.680;5.976;2024-03-06T04:41:06;157.38;;;25.55;;
66886;SDS011;67239;51.680;5.976;2024-03-06T04:43:33;171.68;;;25.60;;
66886;SDS011;67239;51.680;5.976;2024-03-06T04:46:02;133.98;;;24.17;;
66886;SDS011;67239;51.680;5.976;2024-03-06T04:48:29;140.57;;;24.33;;
66886;SDS011;67239;51.680;5.976;2024-03-06T04:50:57;110.72;;;22.60;;
66886;SDS011;67239;51.680;5.976;2024-03-06T04:53:24;106.22;;;23.67;;
66886;SDS011;67239;51.680;5.976;2024-03-06T04:55:51;76.25;;;22.50;;
66886;SDS011;67239;51.680;5.976;2024-03-06T04:58:19;70.75;;;22.25;;
66886;SDS011;67239;51.680;5.976;2024-03-06T05:00:46;83.05;;;26.60;;
66886;SDS011;67239;51.680;5.976;2024-03-06T05:03:14;91.20;;;25.23;;
66886;SDS011;67239;51.680;5.976;2024-03-06T05:05:59;106.82;;;24.60;;
66886;SDS011;67239;51.680;5.976;2024-03-06T05:08:43;139.10;;;25.42;;
66886;SDS011;67239;51.680;5.976;2024-03-06T05:11:28;116.75;;;22.88;;
66886;SDS011;67239;51.680;5.976;2024-03-06T05:14:12;99.82;;;24.05;;
66886;SDS011;67239;51.680;5.976;2024-03-06T05:16:57;149.95;;;25.25;;
66886;SDS011;67239;51.680;5.976;2024-03-06T05:19:41;101.18;;;23.80;;
66886;SDS011;67239;51.680;5.976;2024-03-06T05:22:26;115.88;;;23.52;;
66886;SDS011;67239;51.680;5.976;2024-03-06T05:25:11;89.45;;;22.88;;
66886;SDS011;67239;51.680;5.976;2024-03-06T05:27:55;82.13;;;22.00;;
66886;SDS011;67239;51.680;5.976;2024-03-06T05:30:40;122.10;;;22.85;;
66886;SDS011;67239;51.680;5.976;2024-03-06T05:33:24;102.40;;;23.98;;
66886;SDS011;67239;51.680;5.976;2024-03-06T05:36:09;104.90;;;22.30;;
66886;SDS011;67239;51.680;5.976;2024-03-06T05:38:54;112.80;;;23.05;;
66886;SDS011;67239;51.680;5.976;2024-03-06T05:41:41;128.30;;;22.98;;
66886;SDS011;67239;51.680;5.976;2024-03-06T05:44:26;387.35;;;33.45;;
66886;SDS011;67239;51.680;5.976;2024-03-06T05:47:10;235.73;;;28.88;;
66886;SDS011;67239;51.680;5.976;2024-03-06T05:49:55;124.03;;;21.95;;
66886;SDS011;67239;51.680;5.976;2024-03-06T05:52:39;127.10;;;23.10;;
66886;SDS011;67239;51.680;5.976;2024-03-06T05:55:23;108.43;;;23.17;;
66886;SDS011;67239;51.680;5.976;2024-03-06T05:58:08;117.88;;;23.20;;
66886;SDS011;67239;51.680;5.976;2024-03-06T06:00:38;130.10;;;23.70;;
66886;SDS011;67239;51.680;5.976;2024-03-06T06:03:07;96.10;;;23.42;;
66886;SDS011;67239;51.680;5.976;2024-03-06T06:05:37;121.13;;;23.42;;
66886;SDS011;67239;51.680;5.976;2024-03-06T06:08:06;126.05;;;23.50;;
66886;SDS011;67239;51.680;5.976;2024-03-06T06:10:33;152.73;;;23.95;;
66886;SDS011;67239;51.680;5.976;2024-03-06T06:13:01;88.38;;;22.65;;
66886;SDS011;67239;51.680;5.976;2024-03-06T06:15:31;94.30;;;20.33;;
66886;SDS011;67239;51.680;5.976;2024-03-06T06:17:59;130.40;;;22.63;;
66886;SDS011;67239;51.680;5.976;2024-03-06T06:20:26;267.25;;;28.35;;
66886;SDS011;67239;51.680;5.976;2024-03-06T06:22:53;123.43;;;23.13;;
66886;SDS011;67239;51.680;5.976;2024-03-06T06:25:21;164.95;;;22.52;;
66886;SDS011;67239;51.680;5.976;2024-03-06T06:27:48;59.53;;;19.27;;
66886;SDS011;67239;51.680;5.976;2024-03-06T06:30:16;65.47;;;18.77;;
66886;SDS011;67239;51.680;5.976;2024-03-06T06:32:44;134.25;;;22.15;;
66886;SDS011;67239;51.680;5.976;2024-03-06T06:35:11;103.90;;;18.92;;
66886;SDS011;67239;51.680;5.976;2024-03-06T06:37:40;159.30;;;22.27;;
66886;SDS011;67239;51.680;5.976;2024-03-06T06:40:08;155.57;;;21.23;;
66886;SDS011;67239;51.680;5.976;2024-03-06T06:42:36;143.10;;;20.50;;
66886;SDS011;67239;51.680;5.976;2024-03-06T06:45:05;140.65;;;21.63;;
66886;SDS011;67239;51.680;5.976;2024-03-06T06:47:33;185.35;;;23.77;;
66886;SDS011;67239;51.680;5.976;2024-03-06T06:50:01;239.98;;;26.88;;
66886;SDS011;67239;51.680;5.976;2024-03-06T06:52:32;155.48;;;23.38;;
66886;SDS011;67239;51.680;5.976;2024-03-06T06:55:01;132.45;;;20.38;;
66886;SDS011;67239;51.680;5.976;2024-03-06T06:57:29;260.10;;;29.13;;
66886;SDS011;67239;51.680;5.976;2024-03-06T06:59:57;192.05;;;26.25;;
66886;SDS011;67239;51.680;5.976;2024-03-06T07:02:24;235.82;;;26.20;;
66886;SDS011;67239;51.680;5.976;2024-03-06T07:04:53;209.13;;;24.42;;
66886;SDS011;67239;51.680;5.976;2024-03-06T07:07:20;148.00;;;21.65;;
66886;SDS011;67239;51.680;5.976;2024-03-06T07:09:48;157.15;;;22.50;;
66886;SDS011;67239;51.680;5.976;2024-03-06T07:12:15;273.10;;;27.17;;
66886;SDS011;67239;51.680;5.976;2024-03-06T07:14:42;166.38;;;22.75;;
66886;SDS011;67239;51.680;5.976;2024-03-06T07:17:10;156.82;;;22.60;;
66886;SDS011;67239;51.680;5.976;2024-03-06T07:19:37;171.20;;;22.23;;
66886;SDS011;67239;51.680;5.976;2024-03-06T07:22:04;209.15;;;25.85;;
66886;SDS011;67239;51.680;5.976;2024-03-06T07:24:31;122.60;;;21.45;;
66886;SDS011;67239;51.680;5.976;2024-03-06T07:27:01;111.13;;;21.65;;
66886;SDS011;67239;51.680;5.976;2024-03-06T07:29:28;133.70;;;20.48;;
66886;SDS011;67239;51.680;5.976;2024-03-06T07:31:56;82.55;;;18.77;;
66886;SDS011;67239;51.680;5.976;2024-03-06T07:34:24;130.95;;;22.88;;
66886;SDS011;67239;51.680;5.976;2024-03-06T07:36:52;133.15;;;21.65;;
66886;SDS011;67239;51.680;5.976;2024-03-06T07:39:19;66.88;;;20.00;;
66886;SDS011;67239;51.680;5.976;2024-03-06T07:41:47;106.95;;;20.08;;
66886;SDS011;67239;51.680;5.976;2024-03-06T07:44:14;84.47;;;19.65;;
66886;SDS011;67239;51.680;5.976;2024-03-06T07:46:41;103.13;;;20.25;;
66886;SDS011;67239;51.680;5.976;2024-03-06T07:49:08;80.88;;;19.38;;
66886;SDS011;67239;51.680;5.976;2024-03-06T07:51:36;71.00;;;17.92;;
66886;SDS011;67239;51.680;5.976;2024-03-06T07:54:03;64.43;;;18.90;;
66886;SDS011;67239;51.680;5.976;2024-03-06T07:56:32;65.00;;;16.88;;
66886;SDS011;67239;51.680;5.976;2024-03-06T07:59:00;64.15;;;17.08;;
66886;SDS011;67239;51.680;5.976;2024-03-06T08:01:27;93.50;;;18.20;;
66886;SDS011;67239;51.680;5.976;2024-03-06T08:03:55;90.90;;;18.13;;
66886;SDS011;67239;51.680;5.976;2024-03-06T08:06:23;67.93;;;17.63;;
66886;SDS011;67239;51.680;5.976;2024-03-06T08:08:50;118.93;;;22.02;;
66886;SDS011;67239;51.680;5.976;2024-03-06T08:11:18;43.45;;;17.42;;
66886;SDS011;67239;51.680;5.976;2024-03-06T08:13:48;88.05;;;19.75;;
66886;SDS011;67239;51.680;5.976;2024-03-06T08:16:15;105.55;;;20.40;;
66886;SDS011;67239;51.680;5.976;2024-03-06T08:18:44;152.30;;;23.35;;
66886;SDS011;67239;51.680;5.976;2024-03-06T08:21:11;169.90;;;24.65;;
66886;SDS011;67239;51.680;5.976;2024-03-06T08:23:38;85.25;;;18.83;;
66886;SDS011;67239;51.680;5.976;2024-03-06T08:26:05;75.07;;;18.20;;
66886;SDS011;67239;51.680;5.976;2024-03-06T08:28:32;160.40;;;22.20;;
66886;SDS011;67239;51.680;5.976;2024-03-06T08:31:00;60.03;;;16.63;;
66886;SDS011;67239;51.680;5.976;2024-03-06T08:33:27;47.15;;;18.13;;
66886;SDS011;67239;51.680;5.976;2024-03-06T08:35:54;50.20;;;16.45;;
66886;SDS011;67239;51.680;5.976;2024-03-06T08:38:21;65.00;;;17.25;;
66886;SDS011;67239;51.680;5.976;2024-03-06T08:40:48;91.00;;;17.30;;
66886;SDS011;67239;51.680;5.976;2024-03-06T08:43:16;55.90;;;16.60;;
66886;SDS011;67239;51.680;5.976;2024-03-06T08:45:43;37.40;;;15.10;;
66886;SDS011;67239;51.680;5.976;2024-03-06T08:48:10;39.88;;;15.27;;
66886;SDS011;67239;51.680;5.976;2024-03-06T08:50:38;52.83;;;15.18;;
66886;SDS011;67239;51.680;5.976;2024-03-06T08:53:06;46.50;;;15.38;;
66886;SDS011;67239;51.680;5.976;2024-03-06T08:55:33;25.30;;;15.18;;
66886;SDS011;67239;51.680;5.976;2024-03-06T08:58:00;35.58;;;15.90;;
66886;SDS011;67239;51.680;5.976;2024-03-06T09:00:28;44.08;;;15.05;;
66886;SDS011;67239;51.680;5.976;2024-03-06T09:02:55;45.88;;;15.43;;
66886;SDS011;67239;51.680;5.976;2024-03-06T09:05:22;37.90;;;15.40;;
66886;SDS011;67239;51.680;5.976;2024-03-06T09:07:50;29.83;;;14.80;;
66886;SDS011;67239;51.680;5.976;2024-03-06T09:10:17;24.17;;;13.85;;
66886;SDS011;67239;51.680;5.976;2024-03-06T09:12:46;25.35;;;15.27;;
66886;SDS011;67239;51.680;5.976;2024-03-06T09:15:14;22.60;;;15.07;;
66886;SDS011;67239;51.680;5.976;2024-03-06T09:17:41;30.80;;;15.23;;
66886;SDS011;67239;51.680;5.976;2024-03-06T09:20:09;20.42;;;15.45;;
66886;SDS011;67239;51.680;5.976;2024-03-06T09:22:40;17.30;;;14.52;;
66886;SDS011;67239;51.680;5.976;2024-03-06T09:25:09;31.60;;;15.38;;
66886;SDS011;67239;51.680;5.976;2024-03-06T09:27:39;24.42;;;15.45;;
66886;SDS011;67239;51.680;5.976;2024-03-06T09:30:06;70.35;;;15.63;;
66886;SDS011;67239;51.680;5.976;2024-03-06T09:32:37;24.10;;;14.15;;
66886;SDS011;67239;51.680;5.976;2024-03-06T09:35:06;25.98;;;15.25;;
66886;SDS011;67239;51.680;5.976;2024-03-06T09:37:33;37.03;;;16.05;;
66886;SDS011;67239;51.680;5.976;2024-03-06T09:40:00;29.15;;;16.05;;
66886;SDS011;67239;51.680;5.976;2024-03-06T09:42:28;23.67;;;15.48;;
66886;SDS011;67239;51.680;5.976;2024-03-06T09:44:56;22.30;;;16.15;;
66886;SDS011;67239;51.680;5.976;2024-03-06T09:47:23;20.08;;;15.93;;
66886;SDS011;67239;51.680;5.976;2024-03-06T09:49:54;23.13;;;16.35;;
66886;SDS011;67239;51.680;5.976;2024-03-06T09:52:23;21.13;;;15.70;;
66886;SDS011;67239;51.680;5.976;2024-03-06T09:54:54;20.08;;;16.17;;
66886;SDS011;67239;51.680;5.976;2024-03-06T09:57:23;21.58;;;16.58;;
66886;SDS011;67239;51.680;5.976;2024-03-06T09:59:50;21.10;;;16.92;;
66886;SDS011;67239;51.680;5.976;2024-03-06T10:05:05;28.08;;;17.80;;
66886;SDS011;67239;51.680;5.976;2024-03-06T10:07:33;25.10;;;17.60;;
66886;SDS011;67239;51.680;5.976;2024-03-06T10:10:00;23.25;;;16.83;;
66886;SDS011;67239;51.680;5.976;2024-03-06T10:12:27;24.58;;;18.48;;
66886;SDS011;67239;51.680;5.976;2024-03-06T10:14:56;24.33;;;17.83;;
66886;SDS011;67239;51.680;5.976;2024-03-06T10:17:24;22.83;;;18.77;;
66886;SDS011;67239;51.680;5.976;2024-03-06T10:19:54;23.52;;;17.48;;
66886;SDS011;67239;51.680;5.976;2024-03-06T10:22:22;21.67;;;17.10;;
66886;SDS011;67239;51.680;5.976;2024-03-06T10:24:55;24.35;;;17.77;;
66886;SDS011;67239;51.680;5.976;2024-03-06T10:27:23;22.42;;;17.90;;
66886;SDS011;67239;51.680;5.976;2024-03-06T10:30:03;23.80;;;16.95;;
66886;SDS011;67239;51.680;5.976;2024-03-06T10:32:32;18.80;;;15.73;;
66886;SDS011;67239;51.680;5.976;2024-03-06T10:35:00;19.95;;;16.15;;
66886;SDS011;67239;51.680;5.976;2024-03-06T10:37:28;21.70;;;16.27;;
66886;SDS011;67239;51.680;5.976;2024-03-06T10:39:56;19.40;;;16.35;;
66886;SDS011;67239;51.680;5.976;2024-03-06T10:42:28;20.38;;;16.40;;
66886;SDS011;67239;51.680;5.976;2024-03-06T10:44:57;20.48;;;16.35;;
66886;SDS011;67239;51.680;5.976;2024-03-06T10:47:27;20.92;;;16.70;;
66886;SDS011;67239;51.680;5.976;2024-03-06T10:49:55;22.88;;;16.08;;
66886;SDS011;67239;51.680;5.976;2024-03-06T10:52:27;27.20;;;18.92;;
66886;SDS011;67239;51.680;5.976;2024-03-06T10:55:00;24.20;;;18.70;;
66886;SDS011;67239;51.680;5.976;2024-03-06T10:57:28;27.52;;;18.90;;
66886;SDS011;67239;51.680;5.976;2024-03-06T10:59:57;27.00;;;19.80;;
66886;SDS011;67239;51.680;5.976;2024-03-06T11:04:58;24.27;;;18.20;;
66886;SDS011;67239;51.680;5.976;2024-03-06T11:07:26;25.55;;;19.23;;
66886;SDS011;67239;51.680;5.976;2024-03-06T11:09:54;27.80;;;20.15;;
66886;SDS011;67239;51.680;5.976;2024-03-06T11:12:36;26.13;;;19.63;;
66886;SDS011;67239;51.680;5.976;2024-03-06T11:15:09;27.40;;;20.13;;
66886;SDS011;67239;51.680;5.976;2024-03-06T11:17:43;26.55;;;20.38;;
66886;SDS011;67239;51.680;5.976;2024-03-06T11:20:16;27.77;;;20.10;;
66886;SDS011;67239;51.680;5.976;2024-03-06T11:28:28;29.65;;;21.13;;
66886;SDS011;67239;51.680;5.976;2024-03-06T11:31:01;27.10;;;20.95;;
66886;SDS011;67239;51.680;5.976;2024-03-06T11:33:44;26.27;;;19.42;;
66886;SDS011;67239;51.680;5.976;2024-03-06T11:36:20;27.08;;;19.77;;
66886;SDS011;67239;51.680;5.976;2024-03-06T11:41:27;25.17;;;18.40;;
66886;SDS011;67239;51.680;5.976;2024-03-06T11:44:00;26.20;;;19.30;;
66886;SDS011;67239;51.680;5.976;2024-03-06T11:49:18;41.25;;;20.48;;
66886;SDS011;67239;51.680;5.976;2024-03-06T11:51:52;30.67;;;18.15;;
66886;SDS011;67239;51.680;5.976;2024-03-06T11:54:22;23.58;;;17.45;;
66886;SDS011;67239;51.680;5.976;2024-03-06T11:56:53;27.85;;;18.02;;
66886;SDS011;67239;51.680;5.976;2024-03-06T12:01:58;28.30;;;17.45;;
66886;SDS011;67239;51.680;5.976;2024-03-06T12:04:34;23.85;;;17.88;;
66886;SDS011;67239;51.680;5.976;2024-03-06T12:07:05;24.00;;;15.93;;
66886;SDS011;67239;51.680;5.976;2024-03-06T12:09:34;23.55;;;15.15;;
66886;SDS011;67239;51.680;5.976;2024-03-06T12:12:09;18.95;;;13.63;;
66886;SDS011;67239;51.680;5.976;2024-03-06T12:14:38;20.00;;;12.50;;
66886;SDS011;67239;51.680;5.976;2024-03-06T12:17:10;18.38;;;13.68;;
66886;SDS011;67239;51.680;5.976;2024-03-06T12:19:42;18.25;;;13.00;;
66886;SDS011;67239;51.680;5.976;2024-03-06T12:22:13;19.95;;;11.90;;
66886;SDS011;67239;51.680;5.976;2024-03-06T12:24:45;19.50;;;12.63;;
66886;SDS011;67239;51.680;5.976;2024-03-06T12:27:12;15.82;;;12.27;;
66886;SDS011;67239;51.680;5.976;2024-03-06T12:29:40;14.27;;;10.50;;
66886;SDS011;67239;51.680;5.976;2024-03-06T12:32:19;13.13;;;10.27;;
66886;SDS011;67239;51.680;5.976;2024-03-06T12:34:57;11.70;;;9.93;;
66886;SDS011;67239;51.680;5.976;2024-03-06T12:37:33;13.07;;;8.93;;
66886;SDS011;67239;51.680;5.976;2024-03-06T12:40:02;12.27;;;9.85;;
66886;SDS011;67239;51.680;5.976;2024-03-06T12:42:40;15.75;;;10.55;;
66886;SDS011;67239;51.680;5.976;2024-03-06T12:45:07;13.10;;;9.88;;
66886;SDS011;67239;51.680;5.976;2024-03-06T12:47:35;12.95;;;9.45;;
66886;SDS011;67239;51.680;5.976;2024-03-06T12:50:03;13.63;;;10.00;;
66886;SDS011;67239;51.680;5.976;2024-03-06T12:52:31;13.88;;;9.45;;
66886;SDS011;67239;51.680;5.976;2024-03-06T12:54:58;13.00;;;8.68;;
66886;SDS011;67239;51.680;5.976;2024-03-06T12:57:25;19.75;;;11.18;;
66886;SDS011;67239;51.680;5.976;2024-03-06T12:59:54;19.45;;;9.73;;
66886;SDS011;67239;51.680;5.976;2024-03-06T13:02:21;13.65;;;9.38;;
66886;SDS011;67239;51.680;5.976;2024-03-06T13:04:48;18.33;;;9.32;;
66886;SDS011;67239;51.680;5.976;2024-03-06T13:07:15;16.30;;;9.32;;
66886;SDS011;67239;51.680;5.976;2024-03-06T13:09:43;9.25;;;7.80;;
66886;SDS011;67239;51.680;5.976;2024-03-06T13:12:10;11.70;;;8.20;;
66886;SDS011;67239;51.680;5.976;2024-03-06T13:14:37;12.93;;;9.00;;
66886;SDS011;67239;51.680;5.976;2024-03-06T13:17:05;19.15;;;8.40;;
66886;SDS011;67239;51.680;5.976;2024-03-06T13:19:33;11.15;;;7.07;;
66886;SDS011;67239;51.680;5.976;2024-03-06T13:22:00;10.45;;;7.80;;
66886;SDS011;67239;51.680;5.976;2024-03-06T13:24:31;9.93;;;7.40;;
66886;SDS011;67239;51.680;5.976;2024-03-06T13:26:58;7.03;;;5.18;;
66886;SDS011;67239;51.680;5.976;2024-03-06T13:29:26;9.30;;;6.95;;
66886;SDS011;67239;51.680;5.976;2024-03-06T13:31:53;12.82;;;9.93;;
66886;SDS011;67239;51.680;5.976;2024-03-06T13:34:20;14.15;;;11.00;;
66886;SDS011;67239;51.680;5.976;2024-03-06T13:36:47;15.13;;;8.50;;
66886;SDS011;67239;51.680;5.976;2024-03-06T13:39:14;14.48;;;10.23;;
66886;SDS011;67239;51.680;5.976;2024-03-06T13:41:41;14.38;;;9.70;;
66886;SDS011;67239;51.680;5.976;2024-03-06T13:44:08;12.65;;;8.80;;
66886;SDS011;67239;51.680;5.976;2024-03-06T13:46:36;13.90;;;10.52;;
66886;SDS011;67239;51.680;5.976;2024-03-06T13:49:03;15.13;;;10.45;;
66886;SDS011;67239;51.680;5.976;2024-03-06T13:51:30;14.20;;;9.75;;
66886;SDS011;67239;51.680;5.976;2024-03-06T13:53:58;15.40;;;10.65;;
66886;SDS011;67239;51.680;5.976;2024-03-06T13:56:25;14.40;;;11.23;;
66886;SDS011;67239;51.680;5.976;2024-03-06T13:58:52;16.50;;;11.35;;
66886;SDS011;67239;51.680;5.976;2024-03-06T14:01:19;13.30;;;10.43;;
66886;SDS011;67239;51.680;5.976;2024-03-06T14:03:46;14.65;;;10.88;;
66886;SDS011;67239;51.680;5.976;2024-03-06T14:06:13;13.07;;;10.70;;
66886;SDS011;67239;51.680;5.976;2024-03-06T14:08:40;15.40;;;11.65;;
66886;SDS011;67239;51.680;5.976;2024-03-06T14:11:10;15.45;;;11.45;;
66886;SDS011;67239;51.680;5.976;2024-03-06T14:13:38;14.57;;;11.93;;
66886;SDS011;67239;51.680;5.976;2024-03-06T14:16:05;15.93;;;12.68;;
66886;SDS011;67239;51.680;5.976;2024-03-06T14:18:33;21.60;;;13.50;;
66886;SDS011;67239;51.680;5.976;2024-03-06T14:21:01;17.15;;;13.43;;
66886;SDS011;67239;51.680;5.976;2024-03-06T14:23:28;17.50;;;12.80;;
66886;SDS011;67239;51.680;5.976;2024-03-06T14:25:56;17.67;;;12.82;;
66886;SDS011;67239;51.680;5.976;2024-03-06T14:28:23;18.33;;;13.25;;
66886;SDS011;67239;51.680;5.976;2024-03-06T14:30:51;35.80;;;13.70;;
66886;SDS011;67239;51.680;5.976;2024-03-06T14:33:18;14.68;;;11.50;;
66886;SDS011;67239;51.680;5.976;2024-03-06T14:35:45;15.75;;;11.80;;
66886;SDS011;67239;51.680;5.976;2024-03-06T14:38:13;15.20;;;10.65;;
66886;SDS011;67239;51.680;5.976;2024-03-06T14:40:40;18.02;;;11.95;;
66886;SDS011;67239;51.680;5.976;2024-03-06T14:43:07;15.82;;;11.77;;
66886;SDS011;67239;51.680;5.976;2024-03-06T14:45:36;19.55;;;12.95;;
66886;SDS011;67239;51.680;5.976;2024-03-06T14:48:09;16.52;;;11.52;;